Time;durP1;ratioP1;P1;durP2;ratioP2;P2;SDS_P1;SDS_P2;PMS_P1;PMS_P2;Temp;Humidity;BMP_temperature;BMP_pressure;BME280_temperature;BME280_humidity;BME280_pressure;Samples;Min_cycle;Max_cycle;Signal;HPM_P1;HPM_P2
2021/06/28 00:01:12;;;;;;;;;;;;;;;28.23;49.82;100078.39;1691851;85;20152;-78
2021/06/28 00:03:39;;;;;;;;;;;;;;;28.24;49.80;100081.41;1691713;85;20132;-79
2021/06/28 00:06:06;;;;;;;;;;;;;;;28.27;49.70;100078.09;1691792;85;20160;-79
2021/06/28 00:08:32;;;;;;;;;;;;;;;28.28;49.60;100084.42;1691812;85;20167;-79
2021/06/28 00:11:01;;;;;;;;;;;;;;;28.20;49.72;100094.66;1691719;85;20467;-78
2021/06/28 00:13:27;;;;;;;;;;;;;;;28.17;49.79;100089.73;1692040;85;20155;-78
2021/06/28 00:15:53;;;;;;;;;;;;;;;28.15;49.82;100098.81;1692755;85;20764;-78
2021/06/28 00:18:19;;;;;;;;;;;;;;;28.12;49.88;100104.36;1692664;85;20143;-78
2021/06/28 00:20:46;;;;;;;;;;;;;;;28.12;49.89;100102.98;1691772;85;20373;-78
2021/06/28 00:23:12;;;;;;;;;;;;;;;28.10;49.97;100103.80;1691780;85;20175;-79
2021/06/28 00:25:40;;;;;;;;;;;;;;;28.09;49.96;100102.16;1691653;85;20135;-78
2021/06/28 00:28:07;;;;;;;;;;;;;;;28.06;49.88;100100.78;1691798;85;20143;-78
2021/06/28 00:30:36;;;;;;;;;;;;;;;28.05;49.98;100109.34;1691856;85;20221;-78
2021/06/28 00:33:04;;;;;;;;;;;;;;;28.02;50.00;100098.88;1691624;85;20158;-79
2021/06/28 00:35:30;;;;;;;;;;;;;;;28.00;49.96;100102.48;1680472;85;20166;-78
2021/06/28 00:37:56;;;;;;;;;;;;;;;27.97;49.99;100101.09;1651332;87;20261;-79
2021/06/28 00:40:22;;;;;;;;;;;;;;;27.97;50.04;100096.16;1651275;87;20285;-79
2021/06/28 00:42:48;;;;;;;;;;;;;;;27.96;50.08;100093.95;1651389;87;20154;-78
2021/06/28 00:45:20;;;;;;;;;;;;;;;27.96;50.05;100100.02;1650903;87;20203;-78
2021/06/28 00:47:46;;;;;;;;;;;;;;;27.95;50.04;100098.37;1651257;87;20178;-77
2021/06/28 00:50:14;;;;;;;;;;;;;;;27.97;49.94;100096.16;1651067;87;20181;-78
2021/06/28 00:52:40;;;;;;;;;;;;;;;27.93;50.00;100096.44;1651379;86;20169;-77
2021/06/28 00:55:09;;;;;;;;;;;;;;;27.95;49.94;100098.37;1650802;87;20191;-78
2021/06/28 00:57:35;;;;;;;;;;;;;;;27.94;49.96;100098.11;1641941;86;20138;-78
2021/06/28 01:00:00;;;;;;;;;;;;;;;27.96;49.95;100095.89;1663472;86;20195;-78
2021/06/28 01:02:26;;;;;;;;;;;;;;;27.97;49.96;100103.03;1663658;86;20164;-78
2021/06/28 01:04:53;;;;;;;;;;;;;;;27.97;49.93;100103.03;1663888;86;20181;-77
2021/06/28 01:07:18;;;;;;;;;;;;;;;27.94;49.89;100094.80;1664270;86;20659;-77
2021/06/28 01:09:44;;;;;;;;;;;;;;;27.93;49.79;100095.89;1663767;86;20165;-78
2021/06/28 01:12:10;;;;;;;;;;;;;;;27.91;49.77;100091.78;1663849;85;20148;-78
2021/06/28 01:14:37;;;;;;;;;;;;;;;27.89;49.80;100098.11;1663456;85;20163;-78
2021/06/28 01:17:03;;;;;;;;;;;;;;;27.91;49.69;100095.36;1642524;86;20176;-78
2021/06/28 01:19:32;;;;;;;;;;;;;;;27.91;49.67;100097.29;1663430;86;20173;-78
2021/06/28 01:22:00;;;;;;;;;;;;;;;27.87;49.71;100096.20;1663476;85;20134;-78
2021/06/28 01:24:26;;;;;;;;;;;;;;;27.87;49.71;100100.33;1642217;86;20141;-78
2021/06/28 01:26:51;;;;;;;;;;;;;;;27.89;49.65;100100.86;1663914;85;20208;-78
2021/06/28 01:29:18;;;;;;;;;;;;;;;27.91;49.50;100102.80;1663733;85;20184;-77
2021/06/28 01:31:44;;;;;;;;;;;;;;;27.90;49.41;100107.48;1663639;86;20134;-78
2021/06/28 01:34:10;;;;;;;;;;;;;;;27.90;49.37;100106.66;1642332;86;20168;-77
2021/06/28 01:36:36;;;;;;;;;;;;;;;27.85;49.42;100099.25;1663399;85;20409;-77
2021/06/28 01:39:03;;;;;;;;;;;;;;;27.83;49.43;100104.75;1663395;85;20166;-78
2021/06/28 01:41:29;;;;;;;;;;;;;;;27.80;49.48;100106.97;1663701;86;20188;-77
2021/06/28 01:43:56;;;;;;;;;;;;;;;27.80;49.53;100101.47;1663564;86;20187;-78
2021/06/28 01:46:22;;;;;;;;;;;;;;;27.78;49.51;100106.41;1663736;85;20231;-77
2021/06/28 01:48:48;;;;;;;;;;;;;;;27.77;49.52;100105.33;1663479;85;20172;-78
2021/06/28 01:51:14;;;;;;;;;;;;;;;27.75;49.48;100114.40;1663599;85;20678;-78
2021/06/28 01:53:41;;;;;;;;;;;;;;;27.71;49.50;100110.55;1663605;86;20189;-76
2021/06/28 01:56:07;;;;;;;;;;;;;;;27.69;49.53;100112.75;1691627;85;20186;-77
2021/06/28 01:58:34;;;;;;;;;;;;;;;27.67;49.55;100114.41;1691313;85;20139;-76
2021/06/28 02:01:00;;;;;;;;;;;;;;;27.65;49.53;100112.48;1691265;85;20163;-77
2021/06/28 02:03:26;;;;;;;;;;;;;;;27.63;49.59;100111.13;1691233;85;20099;-76
2021/06/28 02:05:55;;;;;;;;;;;;;;;27.60;49.64;100111.12;1691384;85;20411;-77
2021/06/28 02:08:24;;;;;;;;;;;;;;;27.60;49.62;100106.99;1680010;85;20127;-78
2021/06/28 02:10:52;;;;;;;;;;;;;;;27.60;49.62;100104.23;1679850;85;20132;-78
2021/06/28 02:13:24;;;;;;;;;;;;;;;27.60;49.57;100109.74;1690564;85;20182;-78
2021/06/28 02:15:52;;;;;;;;;;;;;;;27.57;49.63;100099.31;1691214;85;20123;-79
2021/06/28 02:18:22;;;;;;;;;;;;;;;27.56;49.62;100099.02;1691003;85;20143;-78
2021/06/28 02:20:48;;;;;;;;;;;;;;;27.54;49.61;100103.44;1691665;85;20144;-78
2021/06/28 02:23:33;;;;;;;;;;;;;;;27.53;49.72;100107.30;1691729;85;20144;-78
2021/06/28 02:26:05;;;;;;;;;;;;;;;27.54;49.71;100103.99;1680634;85;20142;-77
2021/06/28 02:28:33;;;;;;;;;;;;;;;27.53;49.70;100103.73;1679391;85;20123;-77
2021/06/28 02:31:00;;;;;;;;;;;;;;;27.53;49.64;100103.73;1691463;85;20147;-77
2021/06/28 02:33:26;;;;;;;;;;;;;;;27.51;49.66;100096.29;1690384;85;20198;-77
2021/06/28 02:35:52;;;;;;;;;;;;;;;27.50;49.66;100099.59;1689733;85;20166;-76
2021/06/28 02:38:19;;;;;;;;;;;;;;;27.51;49.63;100101.79;1689561;85;20479;-76
2021/06/28 02:40:44;;;;;;;;;;;;;;;27.51;49.65;100096.29;1689935;85;20197;-76
2021/06/28 02:43:11;;;;;;;;;;;;;;;27.52;49.66;100100.68;1689809;85;20310;-77
2021/06/28 02:45:43;;;;;;;;;;;;;;;27.55;49.62;100101.50;1689991;85;20178;-77
2021/06/28 02:48:08;;;;;;;;;;;;;;;27.56;49.59;100103.14;1689927;84;20079;-77
2021/06/28 02:50:34;;;;;;;;;;;;;;;27.57;49.54;100102.07;1691848;85;20229;-77
2021/06/28 02:53:00;;;;;;;;;;;;;;;27.58;49.58;100111.14;1691639;85;20217;-77
2021/06/28 02:55:26;;;;;;;;;;;;;;;27.57;49.52;100104.82;1691953;85;20245;-77
2021/06/28 02:57:52;;;;;;;;;;;;;;;27.58;49.55;100107.02;1667853;85;20687;-77
2021/06/28 03:00:18;;;;;;;;;;;;;;;27.59;49.53;100117.73;1692037;85;20206;-77
2021/06/28 03:02:44;;;;;;;;;;;;;;;27.60;49.54;100109.74;1691448;85;20393;-77
2021/06/28 03:05:11;;;;;;;;;;;;;;;27.63;49.57;100122.95;1691583;85;20143;-77
2021/06/28 03:07:38;;;;;;;;;;;;;;;27.65;49.44;100126.23;1691448;85;20433;-77
2021/06/28 03:10:07;;;;;;;;;;;;;;;27.66;49.38;100127.91;1680134;85;20139;-77
2021/06/28 03:12:33;;;;;;;;;;;;;;;27.64;49.38;100125.97;1679391;85;20154;-78
2021/06/28 03:15:00;;;;;;;;;;;;;;;27.63;49.38;100131.20;1680035;85;20334;-78
2021/06/28 03:17:26;;;;;;;;;;;;;;;27.59;49.39;100127.36;1691260;85;20207;-78
2021/06/28 03:19:54;;;;;;;;;;;;;;;27.58;49.46;100132.59;1691354;85;20128;-78
2021/06/28 03:22:20;;;;;;;;;;;;;;;27.59;49.55;100141.12;1691597;85;20178;-77
2021/06/28 03:24:46;;;;;;;;;;;;;;;27.63;49.52;100136.71;1691162;85;20179;-77
2021/06/28 03:27:12;;;;;;;;;;;;;;;27.66;49.48;100136.16;1691489;85;20237;-77
2021/06/28 03:29:38;;;;;;;;;;;;;;;27.66;49.57;100134.78;1690847;85;20249;-77
2021/06/28 03:32:05;;;;;;;;;;;;;;;27.67;49.52;100139.73;1689847;85;20206;-77
2021/06/28 03:34:31;;;;;;;;;;;;;;;27.68;49.48;100133.13;1665155;86;20177;-77
2021/06/28 03:36:57;;;;;;;;;;;;;;;27.70;49.38;100130.90;1679169;85;20545;-78
2021/06/28 03:39:23;;;;;;;;;;;;;;;27.68;49.43;100142.20;1679534;85;20175;-77
2021/06/28 03:41:49;;;;;;;;;;;;;;;27.69;49.48;100131.45;1678887;85;20306;-78
2021/06/28 03:44:15;;;;;;;;;;;;;;;27.72;49.42;100133.69;1678110;85;20223;-78
2021/06/28 03:46:42;;;;;;;;;;;;;;;27.74;49.31;100141.09;1665593;86;20406;-78
2021/06/28 03:49:07;;;;;;;;;;;;;;;27.76;49.29;100141.66;1679148;85;20229;-77
2021/06/28 03:51:33;;;;;;;;;;;;;;;27.77;49.25;100130.91;1679300;85;20173;-78
2021/06/28 03:53:59;;;;;;;;;;;;;;;27.78;49.17;100135.87;1678932;85;20216;-78
2021/06/28 03:56:25;;;;;;;;;;;;;;;27.76;49.04;100133.41;1679752;85;20183;-78
2021/06/28 03:58:51;;;;;;;;;;;;;;;27.77;48.97;100136.42;1680270;85;20182;-78
2021/06/28 04:01:18;;;;;;;;;;;;;;;27.76;48.97;100132.03;1680157;85;20175;-77
2021/06/28 04:03:44;;;;;;;;;;;;;;;27.77;49.01;100134.22;1680029;85;20162;-77
2021/06/28 04:06:10;;;;;;;;;;;;;;;27.77;48.96;100136.98;1680217;85;20156;-77
2021/06/28 04:08:38;;;;;;;;;;;;;;;27.80;48.93;100142.75;1679093;85;20143;-77
2021/06/28 04:11:05;;;;;;;;;;;;;;;27.83;48.92;100143.28;1679571;85;20139;-77
2021/06/28 04:13:31;;;;;;;;;;;;;;;27.85;48.74;100146.59;1678847;85;20224;-77
2021/06/28 04:15:57;;;;;;;;;;;;;;;27.85;48.72;100149.34;1666899;86;20219;-77
2021/06/28 04:18:23;;;;;;;;;;;;;;;27.85;48.71;100147.97;1680118;85;20165;-77
2021/06/28 04:20:49;;;;;;;;;;;;;;;27.84;48.60;100137.48;1680388;85;20707;-77
2021/06/28 04:23:15;;;;;;;;;;;;;;;27.84;48.53;100143.55;1680027;85;20150;-77
2021/06/28 04:25:41;;;;;;;;;;;;;;;27.86;48.44;100142.73;1650480;87;20182;-79
2021/06/28 04:28:07;;;;;;;;;;;;;;;27.81;48.41;100142.20;1665303;85;20205;-78
2021/06/28 04:30:33;;;;;;;;;;;;;;;27.83;48.28;100145.48;1679843;85;20223;-78
2021/06/28 04:32:59;;;;;;;;;;;;;;;27.84;48.33;100140.80;1680363;85;20806;-78
2021/06/28 04:35:27;;;;;;;;;;;;;;;27.85;48.42;100144.66;1676463;85;20160;-78
2021/06/28 04:37:54;;;;;;;;;;;;;;;27.88;48.23;100142.70;1675651;85;20188;-78
2021/06/28 04:40:21;;;;;;;;;;;;;;;27.91;48.15;100144.09;1676650;85;20236;-78
2021/06/28 04:42:48;;;;;;;;;;;;;;;27.92;48.00;100149.86;1678497;85;20182;-78
2021/06/28 04:45:14;;;;;;;;;;;;;;;27.94;48.04;100153.17;1677534;85;20429;-78
2021/06/28 04:47:40;;;;;;;;;;;;;;;27.95;47.98;100152.87;1677606;85;20209;-77
2021/06/28 04:50:06;;;;;;;;;;;;;;;27.96;47.98;100159.20;1677062;85;20193;-78
2021/06/28 04:52:33;;;;;;;;;;;;;;;27.96;47.91;100155.08;1677407;85;20202;-78
2021/06/28 04:55:00;;;;;;;;;;;;;;;27.96;47.70;100153.70;1678134;85;20154;-78
2021/06/28 04:57:26;;;;;;;;;;;;;;;27.93;47.59;100155.63;1678976;85;20158;-78
2021/06/28 04:59:52;;;;;;;;;;;;;;;27.92;47.50;100156.18;1678637;85;20475;-78
2021/06/28 05:02:18;;;;;;;;;;;;;;;27.91;47.53;100164.73;1679526;85;20205;-78
2021/06/28 05:04:47;;;;;;;;;;;;;;;27.92;47.48;100163.06;1678411;85;20306;-78
2021/06/28 05:07:12;;;;;;;;;;;;;;;27.94;47.31;100162.25;1676561;85;20241;-78
2021/06/28 05:09:38;;;;;;;;;;;;;;;27.94;47.31;100165.00;1676712;85;20215;-77
2021/06/28 05:12:05;;;;;;;;;;;;;;;27.95;47.30;100171.33;1677107;85;20812;-78
2021/06/28 05:14:31;;;;;;;;;;;;;;;27.95;47.19;100169.95;1677201;85;20212;-78
2021/06/28 05:16:57;;;;;;;;;;;;;;;27.96;47.10;100178.48;1676014;85;20701;-79
2021/06/28 05:19:23;;;;;;;;;;;;;;;27.97;47.17;100174.61;1676697;85;20199;-79
2021/06/28 05:21:50;;;;;;;;;;;;;;;27.95;47.21;100170.77;1677695;85;20224;-78
2021/06/28 05:24:16;;;;;;;;;;;;;;;27.96;47.08;100185.36;1677777;85;20340;-78
2021/06/28 05:26:42;;;;;;;;;;;;;;;27.96;47.04;100186.73;1677100;85;20352;-78
2021/06/28 05:29:08;;;;;;;;;;;;;;;27.94;47.09;100190.33;1678225;85;20502;-79
2021/06/28 05:31:36;;;;;;;;;;;;;;;27.94;47.29;100190.33;1679495;85;20281;-79
2021/06/28 05:34:01;;;;;;;;;;;;;;;27.94;47.25;100201.34;1679644;85;20214;-79
2021/06/28 05:36:27;;;;;;;;;;;;;;;27.95;47.29;100195.55;1679457;85;20247;-79
2021/06/28 05:38:54;;;;;;;;;;;;;;;27.98;47.42;100193.63;1678409;85;20190;-79
2021/06/28 05:41:21;;;;;;;;;;;;;;;28.02;47.26;100199.37;1653077;85;20176;-79
2021/06/28 05:43:47;;;;;;;;;;;;;;;28.05;47.11;100201.58;1678433;85;20892;-78
2021/06/28 05:46:13;;;;;;;;;;;;;;;28.08;47.05;100208.46;1678173;85;20236;-78
2021/06/28 05:48:39;;;;;;;;;;;;;;;28.10;46.95;100205.68;1679575;85;20177;-78
2021/06/28 05:51:05;;;;;;;;;;;;;;;28.12;46.71;100204.05;1678997;85;20215;-79
2021/06/28 05:53:33;;;;;;;;;;;;;;;28.12;46.71;100202.67;1678133;85;20207;-79
2021/06/28 05:56:01;;;;;;;;;;;;;;;28.12;46.86;100202.67;1677645;84;20240;-79
2021/06/28 05:58:28;;;;;;;;;;;;;;;28.11;46.85;100200.44;1677347;85;20216;-81
2021/06/28 06:00:56;;;;;;;;;;;;;;;28.13;47.01;100202.93;1677527;85;20205;-79
2021/06/28 06:03:22;;;;;;;;;;;;;;;28.13;46.88;100201.00;1676986;85;20188;-78
2021/06/28 06:05:48;;;;;;;;;;;;;;;28.14;46.90;100199.89;1676633;85;20204;-78
2021/06/28 06:08:14;;;;;;;;;;;;;;;28.17;46.83;100207.59;1679225;85;20149;-78
2021/06/28 06:10:40;;;;;;;;;;;;;;;28.21;46.91;100210.06;1679150;85;20165;-79
2021/06/28 06:13:07;;;;;;;;;;;;;;;28.25;46.88;100213.91;1679089;85;20457;-78
2021/06/28 06:15:35;;;;;;;;;;;;;;;28.30;46.71;100213.88;1677971;85;20188;-78
2021/06/28 06:18:02;;;;;;;;;;;;;;;28.32;46.46;100209.45;1696238;84;20319;-78
2021/06/28 06:20:29;;;;;;;;;;;;;;;28.38;46.47;100206.97;1706446;84;20210;-78
2021/06/28 06:22:55;;;;;;;;;;;;;;;28.44;46.70;100209.17;1700209;84;20182;-79
2021/06/28 06:25:21;;;;;;;;;;;;;;;28.57;46.50;100207.18;1693890;84;20191;-78
2021/06/28 06:27:47;;;;;;;;;;;;;;;28.75;46.19;100210.66;1692951;84;20266;-78
2021/06/28 06:30:14;;;;;;;;;;;;;;;28.93;46.01;100205.00;1676867;85;20250;-79
2021/06/28 06:32:40;;;;;;;;;;;;;;;29.12;45.96;100207.95;1678200;85;20163;-79
2021/06/28 06:35:07;;;;;;;;;;;;;;;29.32;45.54;100207.77;1690487;85;20171;-78
2021/06/28 06:37:33;;;;;;;;;;;;;;;29.49;45.00;100206.54;1689808;85;20176;-77
2021/06/28 06:39:59;;;;;;;;;;;;;;;29.63;44.56;100207.53;1690085;85;20158;-78
2021/06/28 06:42:25;;;;;;;;;;;;;;;29.74;43.73;100209.63;1676257;85;20413;-78
2021/06/28 06:44:51;;;;;;;;;;;;;;;29.80;43.43;100214.00;1649221;85;20227;-77
2021/06/28 06:47:17;;;;;;;;;;;;;;;29.82;43.28;100218.09;1688490;85;20830;-78
2021/06/28 06:49:43;;;;;;;;;;;;;;;29.85;43.06;100226.37;1689623;85;20154;-77
2021/06/28 06:52:10;;;;;;;;;;;;;;;29.85;42.81;100226.93;1689696;85;20162;-78
2021/06/28 06:54:36;;;;;;;;;;;;;;;29.75;42.75;100230.06;1676831;85;20182;-78
2021/06/28 06:57:03;;;;;;;;;;;;;;;29.69;42.67;100232.58;1688451;85;20171;-78
2021/06/28 06:59:29;;;;;;;;;;;;;;;29.63;42.78;100237.08;1690087;85;20285;-78
2021/06/28 07:01:55;;;;;;;;;;;;;;;29.58;43.03;100239.89;1689723;85;20794;-78
2021/06/28 07:04:21;;;;;;;;;;;;;;;29.55;43.24;100239.90;1691117;85;20210;-78
2021/06/28 07:06:47;;;;;;;;;;;;;;;29.53;43.12;100242.11;1691659;85;20720;-78
2021/06/28 07:09:14;;;;;;;;;;;;;;;29.53;42.96;100248.45;1690455;85;20471;-78
2021/06/28 07:11:40;;;;;;;;;;;;;;;29.54;42.86;100254.78;1690114;85;20144;-78
2021/06/28 07:14:07;;;;;;;;;;;;;;;29.55;42.94;100248.17;1689933;85;20166;-78
2021/06/28 07:16:33;;;;;;;;;;;;;;;29.58;42.93;100253.13;1689922;85;20178;-78
2021/06/28 07:19:00;;;;;;;;;;;;;;;29.67;43.20;100251.95;1668323;86;20221;-78
2021/06/28 07:21:27;;;;;;;;;;;;;;;29.78;42.92;100249.34;1664271;86;20212;-78
2021/06/28 07:23:54;;;;;;;;;;;;;;;29.88;42.54;100242.89;1659051;86;20208;-78
2021/06/28 07:26:21;;;;;;;;;;;;;;;29.95;42.32;100251.67;1678891;85;20134;-78
2021/06/28 07:28:47;;;;;;;;;;;;;;;29.95;42.15;100247.53;1706145;84;20186;-80
2021/06/28 07:31:13;;;;;;;;;;;;;;;29.96;42.14;100247.78;1706008;84;20350;-78
2021/06/28 07:33:41;;;;;;;;;;;;;;;29.97;42.39;100246.66;1705005;84;20240;-78
2021/06/28 07:36:08;;;;;;;;;;;;;;;30.05;42.45;100246.03;1706467;84;20524;-78
2021/06/28 07:38:35;;;;;;;;;;;;;;;30.18;42.07;100245.36;1681410;84;20488;-79
2021/06/28 07:41:02;;;;;;;;;;;;;;;30.36;41.90;100243.77;1677224;85;20203;-79
2021/06/28 07:43:28;;;;;;;;;;;;;;;30.57;41.85;100233.29;1677987;85;20187;-79
2021/06/28 07:45:54;;;;;;;;;;;;;;;30.80;41.25;100242.12;1677928;85;20293;-78
2021/06/28 07:48:21;;;;;;;;;;;;;;;31.00;40.79;100239.60;1677629;85;20302;-77
2021/06/28 07:50:47;;;;;;;;;;;;;;;31.13;40.24;100236.65;1677706;85;20211;-77
2021/06/28 07:53:13;;;;;;;;;;;;;;;31.15;40.33;100241.87;1675331;85;20315;-78
2021/06/28 07:55:41;;;;;;;;;;;;;;;31.26;40.13;100248.34;1674957;85;20400;-79
2021/06/28 07:58:07;;;;;;;;;;;;;;;31.28;39.88;100247.49;1676249;85;20140;-78
2021/06/28 08:00:33;;;;;;;;;;;;;;;31.42;39.78;100250.87;1675962;85;20145;-79
2021/06/28 08:03:00;;;;;;;;;;;;;;;31.54;39.84;100242.93;1676269;84;20192;-77
2021/06/28 08:05:27;;;;;;;;;;;;;;;31.65;39.73;100258.22;1704794;84;20353;-78
2021/06/28 08:07:54;;;;;;;;;;;;;;;31.68;39.65;100249.31;1705040;84;20178;-78
2021/06/28 08:10:20;;;;;;;;;;;;;;;31.69;39.14;100251.52;1705163;84;20166;-78
2021/06/28 08:12:48;;;;;;;;;;;;;;;31.76;38.88;100250.58;1704225;84;20256;-78
2021/06/28 08:15:19;;;;;;;;;;;;;;;31.85;38.93;100246.58;1703951;84;20166;-78
2021/06/28 08:17:48;;;;;;;;;;;;;;;31.90;38.96;100252.02;1696373;84;20357;-80
2021/06/28 08:20:14;;;;;;;;;;;;;;;31.95;38.91;100245.81;1688454;85;20334;-79
2021/06/28 08:22:41;;;;;;;;;;;;;;;32.01;38.81;100253.45;1676856;85;20524;-79
2021/06/28 08:25:09;;;;;;;;;;;;;;;32.05;38.80;100246.17;1677636;85;20170;-79
2021/06/28 08:27:35;;;;;;;;;;;;;;;32.08;38.72;100251.11;1677197;84;20252;-78
2021/06/28 08:30:04;;;;;;;;;;;;;;;32.09;38.66;100252.75;1668339;84;20194;-79
2021/06/28 08:32:30;;;;;;;;;;;;;;;32.14;38.80;100254.03;1678600;85;20159;-78
2021/06/28 08:34:58;;;;;;;;;;;;;;;32.23;38.45;100249.41;1677365;85;20820;-79
2021/06/28 08:37:24;;;;;;;;;;;;;;;32.33;38.72;100253.36;1677137;85;20205;-78
2021/06/28 08:39:51;;;;;;;;;;;;;;;32.46;37.91;100253.70;1677266;85;20479;-78
2021/06/28 08:42:17;;;;;;;;;;;;;;;32.56;37.23;100260.41;1677747;85;20227;-78
2021/06/28 08:44:44;;;;;;;;;;;;;;;32.63;36.73;100253.07;1677535;85;20196;-78
2021/06/28 08:47:10;;;;;;;;;;;;;;;32.63;36.74;100261.39;1651922;85;20201;-79
2021/06/28 08:49:37;;;;;;;;;;;;;;;32.57;36.57;100262.89;1677125;85;20776;-79
2021/06/28 08:52:04;;;;;;;;;;;;;;;32.51;36.79;100261.91;1677282;85;20470;-78
2021/06/28 08:54:31;;;;;;;;;;;;;;;32.46;37.06;100264.79;1682749;85;20353;-78
2021/06/28 08:56:57;;;;;;;;;;;;;;;32.45;37.13;100268.70;1667683;86;20261;-78
2021/06/28 08:59:23;;;;;;;;;;;;;;;32.43;36.85;100272.33;1664081;85;20593;-78
2021/06/28 09:01:50;;;;;;;;;;;;;;;32.40;36.88;100279.89;1665488;85;20242;-79
2021/06/28 09:04:16;;;;;;;;;;;;;;;32.37;37.28;100277.70;1659049;85;20224;-80
2021/06/28 09:06:42;;;;;;;;;;;;;;;32.41;37.14;100274.03;1635383;87;20759;-79
2021/06/28 09:09:10;;;;;;;;;;;;;;;32.44;37.04;100283.12;1648658;85;20279;-78
2021/06/28 09:11:48;;;;;;;;;;;;;;;32.42;36.91;100280.39;1680661;84;20195;-78
2021/06/28 09:14:14;;;;;;;;;;;;;;;32.38;37.09;100283.52;1688443;85;20102;-78
2021/06/28 09:16:42;;;;;;;;;;;;;;;32.31;37.33;100288.08;1687785;85;20151;-78
2021/06/28 09:19:14;;;;;;;;;;;;;;;32.27;37.56;100289.25;1700842;84;20211;-78
2021/06/28 09:21:52;;;;;;;;;;;;;;;32.22;37.44;100292.13;1686550;84;20145;-78
2021/06/28 09:24:26;;;;;;;;;;;;;;;32.15;37.10;100294.46;1677386;85;20191;-79
2021/06/28 09:26:54;;;;;;;;;;;;;;;32.07;37.21;100289.66;1676384;85;20168;-80
2021/06/28 09:29:33;;;;;;;;;;;;;;;31.97;36.95;100290.64;1668119;84;20217;-78
2021/06/28 09:32:08;;;;;;;;;;;;;;;31.87;37.40;100296.38;1689631;84;20253;-78
2021/06/28 09:34:34;;;;;;;;;;;;;;;31.78;37.33;100281.55;1683939;84;20171;-77
2021/06/28 09:37:00;;;;;;;;;;;;;;;31.74;37.28;100284.66;1700392;84;20133;-77
2021/06/28 09:39:31;;;;;;;;;;;;;;;31.71;37.66;100281.95;1684188;84;20209;-79
2021/06/28 09:42:10;;;;;;;;;;;;;;;31.73;37.58;100282.45;1656208;86;20181;-79
2021/06/28 09:44:39;;;;;;;;;;;;;;;31.71;37.66;100276.98;1673962;85;20175;-80
2021/06/28 09:47:10;;;;;;;;;;;;;;;31.69;37.49;100274.49;1675963;85;21436;-79
2021/06/28 09:49:37;;;;;;;;;;;;;;;31.67;37.39;100278.14;1663176;85;20170;-79
2021/06/28 09:52:04;;;;;;;;;;;;;;;31.67;37.67;100270.40;1677647;85;20159;-80
2021/06/28 09:54:32;;;;;;;;;;;;;;;31.63;37.66;100266.02;1676840;85;20208;-79
2021/06/28 09:56:58;;;;;;;;;;;;;;;31.61;37.63;100271.03;1673722;85;20172;-77
2021/06/28 09:59:31;;;;;;;;;;;;;;;31.57;37.75;100268.63;1673410;85;20171;-78
2021/06/28 10:02:18;;;;;;;;;;;;;;;31.55;38.32;100265.33;1675400;85;20149;-79
2021/06/28 10:04:48;;;;;;;;;;;;;;;31.51;38.15;100272.02;1674169;85;20184;-79
2021/06/28 10:07:25;;;;;;;;;;;;;;;31.48;38.58;100267.68;1675217;85;20108;-78
2021/06/28 10:10:13;;;;;;;;;;;;;;;31.50;39.12;100270.95;1674494;85;20173;-78
2021/06/28 10:12:42;;;;;;;;;;;;;;;31.49;38.70;100271.52;1686883;84;20213;-78
2021/06/28 10:15:13;;;;;;;;;;;;;;;31.49;38.47;100276.23;1679411;84;20146;-78
2021/06/28 10:17:39;;;;;;;;;;;;;;;31.47;38.36;100271.55;1676433;84;20195;-79
2021/06/28 10:20:07;;;;;;;;;;;;;;;31.46;38.25;100278.22;1704145;84;20224;-79
2021/06/28 10:22:34;;;;;;;;;;;;;;;31.45;38.41;100289.03;1698383;84;20225;-79
2021/06/28 10:24:59;;;;;;;;;;;;;;;31.45;38.43;100289.03;1694352;84;20330;-79
2021/06/28 10:27:27;;;;;;;;;;;;;;;31.43;38.92;100278.81;1695177;84;20277;-78
2021/06/28 10:29:53;;;;;;;;;;;;;;;31.45;39.18;100285.70;1694270;84;20130;-78
2021/06/28 10:32:19;;;;;;;;;;;;;;;31.45;38.95;100284.88;1676548;84;20200;-80
2021/06/28 10:34:51;;;;;;;;;;;;;;;31.42;38.52;100282.14;1610200;86;20147;-78
2021/06/28 10:37:32;;;;;;;;;;;;;;;31.42;38.17;100286.86;1659870;86;20431;-78
2021/06/28 10:40:00;;;;;;;;;;;;;;;31.43;38.24;100285.73;1675988;85;20137;-78
2021/06/28 10:42:31;;;;;;;;;;;;;;;31.44;37.93;100288.78;1676670;84;20178;-77
2021/06/28 10:44:57;;;;;;;;;;;;;;;31.45;38.11;100286.27;1677131;85;20159;-78
2021/06/28 10:47:23;;;;;;;;;;;;;;;31.46;38.18;100287.91;1666451;85;20269;-78
2021/06/28 10:49:52;;;;;;;;;;;;;;;31.48;37.97;100275.98;1654009;85;20175;-77
2021/06/28 10:52:42;;;;;;;;;;;;;;;31.50;37.71;100279.27;1675521;84;20184;-78
2021/06/28 10:55:24;;;;;;;;;;;;;;;31.50;37.14;100283.41;1675684;85;20440;-79
2021/06/28 10:57:56;;;;;;;;;;;;;;;31.49;37.21;100280.39;1595054;88;20517;-79
2021/06/28 11:00:51;;;;;;;;;;;;;;;31.48;37.50;100281.52;1654358;86;20147;-79
2021/06/28 11:03:27;;;;;;;;;;;;;;;31.44;37.69;100291.55;1666204;85;20199;-78
2021/06/28 11:06:22;;;;;;;;;;;;;;;31.40;38.05;100288.56;1668651;84;20154;-78
2021/06/28 11:09:08;;;;;;;;;;;;;;;31.36;38.00;100293.05;1659078;85;20189;-79
2021/06/28 11:11:46;;;;;;;;;;;;;;;31.25;37.75;100290.98;1658433;85;20182;-78
2021/06/28 11:14:25;;;;;;;;;;;;;;;31.19;37.78;100289.95;1687667;84;20214;-79
2021/06/28 11:16:58;;;;;;;;;;;;;;;31.14;38.14;100290.85;1684098;84;20216;-78
2021/06/28 11:19:58;;;;;;;;;;;;;;;31.12;38.06;100293.11;1673755;85;20208;-78
2021/06/28 11:22:32;;;;;;;;;;;;;;;31.14;38.14;100303.30;1675077;85;20454;-78
2021/06/28 11:25:11;;;;;;;;;;;;;;;31.13;37.88;100300.28;1675166;85;20176;-78
2021/06/28 11:27:39;;;;;;;;;;;;;;;31.15;37.91;100295.26;1675565;85;20215;-79
2021/06/28 11:30:07;;;;;;;;;;;;;;;31.16;37.84;100299.69;1650449;85;20840;-77
2021/06/28 11:32:34;;;;;;;;;;;;;;;31.18;37.91;100298.81;1673347;85;20314;-78
2021/06/28 11:35:00;;;;;;;;;;;;;;;31.16;38.22;100301.08;1675669;85;20245;-79
2021/06/28 11:37:28;;;;;;;;;;;;;;;31.13;38.40;100298.08;1690494;85;20633;-79
2021/06/28 11:39:57;;;;;;;;;;;;;;;31.13;38.63;100297.52;1690274;85;20490;-78
2021/06/28 11:42:33;;;;;;;;;;;;;;;31.17;38.64;100294.41;1678200;85;20184;-78
2021/06/28 11:45:10;;;;;;;;;;;;;;;31.14;38.49;100293.63;1651605;87;20191;-78
2021/06/28 11:47:49;;;;;;;;;;;;;;;31.11;38.52;100294.20;1661607;86;20185;-78
2021/06/28 11:50:36;;;;;;;;;;;;;;;31.08;38.54;100290.68;1662531;85;20155;-78
2021/06/28 11:53:05;;;;;;;;;;;;;;;31.07;38.78;100295.39;1677818;85;20186;-78
2021/06/28 11:55:32;;;;;;;;;;;;;;;31.05;38.60;100289.31;1684172;84;20183;-78
2021/06/28 11:58:00;;;;;;;;;;;;;;;31.05;38.48;100294.03;1693195;84;20186;-78
2021/06/28 12:00:26;;;;;;;;;;;;;;;31.02;38.28;100285.78;1693367;84;20223;-78
2021/06/28 12:03:24;;;;;;;;;;;;;;;30.99;38.37;100289.70;1654603;85;20114;-78
2021/06/28 12:05:47;;;;;;;;;;;;;;;30.97;38.52;100283.63;1677714;84;20157;-77
2021/06/28 12:08:13;;;;;;;;;;;;;;;30.97;38.59;100278.09;1677573;85;20167;-77
2021/06/28 12:10:41;;;;;;;;;;;;;;;30.94;38.43;100280.09;1677134;85;20446;-79
2021/06/28 12:13:07;;;;;;;;;;;;;;;30.92;38.38;100285.91;1676917;85;20481;-79
2021/06/28 12:15:33;;;;;;;;;;;;;;;30.91;39.11;100287.03;1676749;85;20196;-79
2021/06/28 12:18:06;;;;;;;;;;;;;;;30.91;39.72;100275.16;1676942;85;20466;-77
2021/06/28 12:20:36;;;;;;;;;;;;;;;30.90;39.83;100279.05;1677139;85;20425;-79
2021/06/28 12:23:10;;;;;;;;;;;;;;;30.89;39.43;100271.31;1675626;85;20528;-78
2021/06/28 12:25:36;;;;;;;;;;;;;;;30.89;38.99;100263.58;1676675;85;20514;-78
2021/06/28 12:28:02;;;;;;;;;;;;;;;30.88;38.70;100270.20;1677024;85;20191;-78
2021/06/28 12:30:30;;;;;;;;;;;;;;;30.87;38.57;100268.57;1677659;85;20231;-78
2021/06/28 12:32:56;;;;;;;;;;;;;;;30.86;38.54;100269.70;1674574;85;20227;-78
2021/06/28 12:35:23;;;;;;;;;;;;;;;30.83;38.66;100273.30;1677973;85;20499;-78
2021/06/28 12:37:54;;;;;;;;;;;;;;;30.81;38.84;100270.02;1677325;85;20809;-78
2021/06/28 12:40:28;;;;;;;;;;;;;;;30.83;38.82;100269.72;1686496;85;20210;-78